Still River, Massachusetts
Current Conditions -  °F | °C
As of 9:52 PM on Saturday 22 Nov 2014 (Local Time) from KFIT Reporting Station
Scattered Clouds Scattered Clouds  
Wind Chill: 35°   Ceiling: Unl
Heat Index: 41°   Visibility: 10mi
Dew Point: 15°   Wind: 9mph
Humidity: 35%   Direction: 240°WSW
Pressure: 30.06"   Gusts: NA
Location:  42.49°N, 71.62°W
Report Text: KFIT 230252Z AUTO 24008KT 10SM SCT032 05/M09 A3006 RMK AO2 SLP184 T00501094 56010
Loading
Personal Weather Stations






























Interactive Weather Map New forecast layout! Learn more

10-Day Weather Forecast

Advertisements
Track Severe Weather on mobile